sensor_id;sensor_type;location;lat;lon;timestamp;pressure;altitude;pressure_sealevel;temperature;humidity
78411;BME280;67706;51.074;-1.796;2023-03-12T00:01:09;100263.41;;;7.77;89.89
78411;BME280;67706;51.074;-1.796;2023-03-12T00:03:35;100258.00;;;7.83;89.86
78411;BME280;67706;51.074;-1.796;2023-03-12T00:06:02;100256.19;;;8.12;89.94
78411;BME280;67706;51.074;-1.796;2023-03-12T00:08:29;100257.63;;;8.29;89.48
78411;BME280;67706;51.074;-1.796;2023-03-12T00:10:57;100259.78;;;8.33;89.27
78411;BME280;67706;51.074;-1.796;2023-03-12T00:13:24;100272.31;;;8.49;89.14
78411;BME280;67706;51.074;-1.796;2023-03-12T00:15:51;100267.94;;;8.54;88.70
78411;BME280;67706;51.074;-1.796;2023-03-12T00:18:17;100272.34;;;8.55;89.30
78411;BME280;67706;51.074;-1.796;2023-03-12T00:20:52;100263.72;;;8.52;89.58
78411;BME280;67706;51.074;-1.796;2023-03-12T00:23:19;100267.47;;;8.51;89.30
78411;BME280;67706;51.074;-1.796;2023-03-12T00:25:47;100265.66;;;8.58;89.50
78411;BME280;67706;51.074;-1.796;2023-03-12T00:28:15;100259.97;;;8.59;89.36
78411;BME280;67706;51.074;-1.796;2023-03-12T00:30:42;100259.78;;;8.61;89.26
78411;BME280;67706;51.074;-1.796;2023-03-12T00:33:09;100272.63;;;8.60;89.26
78411;BME280;67706;51.074;-1.796;2023-03-12T00:35:37;100267.16;;;8.60;89.12
78411;BME280;67706;51.074;-1.796;2023-03-12T00:38:04;100270.53;;;8.62;89.40
78411;BME280;67706;51.074;-1.796;2023-03-12T00:40:31;100263.16;;;8.63;89.21
78411;BME280;67706;51.074;-1.796;2023-03-12T00:42:57;100267.59;;;8.64;88.92
78411;BME280;67706;51.074;-1.796;2023-03-12T00:45:25;100278.91;;;8.61;89.27
78411;BME280;67706;51.074;-1.796;2023-03-12T00:47:52;100281.78;;;8.53;89.51
78411;BME280;67706;51.074;-1.796;2023-03-12T00:50:19;100276.16;;;8.54;89.66
78411;BME280;67706;51.074;-1.796;2023-03-12T00:52:45;100269.13;;;8.45;89.70
78411;BME280;67706;51.074;-1.796;2023-03-12T00:55:12;100268.38;;;8.58;89.45
78411;BME280;67706;51.074;-1.796;2023-03-12T00:57:39;100271.75;;;8.60;89.22
78411;BME280;67706;51.074;-1.796;2023-03-12T01:00:07;100274.34;;;8.68;88.92
78411;BME280;67706;51.074;-1.796;2023-03-12T01:02:36;100274.94;;;8.63;88.92
78411;BME280;67706;51.074;-1.796;2023-03-12T01:05:07;100271.81;;;8.66;89.02
78411;BME280;67706;51.074;-1.796;2023-03-12T01:07:36;100270.13;;;8.65;88.90
78411;BME280;67706;51.074;-1.796;2023-03-12T01:10:04;100261.72;;;8.67;88.67
78411;BME280;67706;51.074;-1.796;2023-03-12T01:12:31;100263.03;;;8.71;88.84
78411;BME280;67706;51.074;-1.796;2023-03-12T01:14:58;100267.22;;;8.73;88.90
78411;BME280;67706;51.074;-1.796;2023-03-12T01:17:25;100266.41;;;8.73;89.05
78411;BME280;67706;51.074;-1.796;2023-03-12T01:19:53;100265.97;;;8.76;88.73
78411;BME280;67706;51.074;-1.796;2023-03-12T01:22:19;100262.22;;;8.77;88.64
78411;BME280;67706;51.074;-1.796;2023-03-12T01:24:46;100262.25;;;8.84;88.74
78411;BME280;67706;51.074;-1.796;2023-03-12T01:27:13;100268.50;;;8.71;88.81
78411;BME280;67706;51.074;-1.796;2023-03-12T01:29:40;100268.34;;;8.79;88.73
78411;BME280;67706;51.074;-1.796;2023-03-12T01:32:07;100277.41;;;8.86;88.49
78411;BME280;67706;51.074;-1.796;2023-03-12T01:34:33;100277.81;;;8.83;88.39
78411;BME280;67706;51.074;-1.796;2023-03-12T01:37:02;100277.44;;;8.93;88.13
78411;BME280;67706;51.074;-1.796;2023-03-12T01:39:28;100275.72;;;8.85;88.29
78411;BME280;67706;51.074;-1.796;2023-03-12T01:41:55;100291.34;;;8.91;88.18
78411;BME280;67706;51.074;-1.796;2023-03-12T01:44:22;100288.81;;;8.90;88.02
78411;BME280;67706;51.074;-1.796;2023-03-12T01:46:48;100279.09;;;8.87;88.15
78411;BME280;67706;51.074;-1.796;2023-03-12T01:49:17;100269.31;;;8.71;88.51
78411;BME280;67706;51.074;-1.796;2023-03-12T01:51:48;100281.00;;;8.59;88.78
78411;BME280;67706;51.074;-1.796;2023-03-12T01:54:20;100279.97;;;8.60;89.19
78411;BME280;67706;51.074;-1.796;2023-03-12T01:56:48;100275.84;;;8.70;88.61
78411;BME280;67706;51.074;-1.796;2023-03-12T01:59:18;100277.78;;;8.76;88.27
78411;BME280;67706;51.074;-1.796;2023-03-12T02:01:46;100274.75;;;8.65;88.63
78411;BME280;67706;51.074;-1.796;2023-03-12T02:04:15;100270.69;;;8.61;88.57
78411;BME280;67706;51.074;-1.796;2023-03-12T02:06:45;100278.09;;;8.60;88.83
78411;BME280;67706;51.074;-1.796;2023-03-12T02:09:14;100279.31;;;8.58;88.63
78411;BME280;67706;51.074;-1.796;2023-03-12T02:11:46;100285.69;;;8.65;88.46
78411;BME280;67706;51.074;-1.796;2023-03-12T02:14:12;100285.28;;;8.68;88.41
78411;BME280;67706;51.074;-1.796;2023-03-12T02:16:39;100281.75;;;8.74;88.25
78411;BME280;67706;51.074;-1.796;2023-03-12T02:19:13;100284.91;;;8.71;88.08
78411;BME280;67706;51.074;-1.796;2023-03-12T02:21:41;100285.78;;;8.78;88.11
78411;BME280;67706;51.074;-1.796;2023-03-12T02:24:14;100285.78;;;8.78;88.33
78411;BME280;67706;51.074;-1.796;2023-03-12T02:26:45;100291.66;;;8.75;88.08
78411;BME280;67706;51.074;-1.796;2023-03-12T02:29:13;100296.16;;;8.61;88.66
78411;BME280;67706;51.074;-1.796;2023-03-12T02:31:43;100297.91;;;8.69;88.29
78411;BME280;67706;51.074;-1.796;2023-03-12T02:34:11;100292.47;;;8.69;88.19
78411;BME280;67706;51.074;-1.796;2023-03-12T02:36:37;100282.91;;;8.58;88.89
78411;BME280;67706;51.074;-1.796;2023-03-12T02:39:04;100278.41;;;8.51;89.06
78411;BME280;67706;51.074;-1.796;2023-03-12T02:41:33;100269.56;;;8.49;89.22
78411;BME280;67706;51.074;-1.796;2023-03-12T02:44:05;100274.59;;;8.45;89.32
78411;BME280;67706;51.074;-1.796;2023-03-12T02:46:35;100273.94;;;8.43;89.71
78411;BME280;67706;51.074;-1.796;2023-03-12T02:49:03;100283.88;;;8.51;89.67
78411;BME280;67706;51.074;-1.796;2023-03-12T02:51:30;100295.22;;;8.48;89.21
78411;BME280;67706;51.074;-1.796;2023-03-12T02:53:57;100296.03;;;8.42;89.28
78411;BME280;67706;51.074;-1.796;2023-03-12T02:56:26;100291.19;;;8.44;89.20
78411;BME280;67706;51.074;-1.796;2023-03-12T02:58:53;100298.53;;;8.43;89.18
78411;BME280;67706;51.074;-1.796;2023-03-12T03:01:21;100311.22;;;8.51;88.98
78411;BME280;67706;51.074;-1.796;2023-03-12T03:03:48;100314.59;;;8.53;88.90
78411;BME280;67706;51.074;-1.796;2023-03-12T03:06:15;100319.16;;;8.67;88.22
78411;BME280;67706;51.074;-1.796;2023-03-12T03:08:42;100325.22;;;8.62;87.92
78411;BME280;67706;51.074;-1.796;2023-03-12T03:11:09;100326.56;;;8.73;87.87
78411;BME280;67706;51.074;-1.796;2023-03-12T03:13:36;100334.75;;;8.73;87.56
78411;BME280;67706;51.074;-1.796;2023-03-12T03:16:03;100341.66;;;8.69;87.31
78411;BME280;67706;51.074;-1.796;2023-03-12T03:18:32;100344.34;;;8.62;87.96
78411;BME280;67706;51.074;-1.796;2023-03-12T03:21:00;100336.53;;;8.59;88.05
78411;BME280;67706;51.074;-1.796;2023-03-12T03:23:28;100344.44;;;8.75;87.70
78411;BME280;67706;51.074;-1.796;2023-03-12T03:25:55;100345.94;;;8.78;87.15
78411;BME280;67706;51.074;-1.796;2023-03-12T03:28:23;100337.72;;;8.78;87.52
78411;BME280;67706;51.074;-1.796;2023-03-12T03:30:51;100339.63;;;8.77;87.39
78411;BME280;67706;51.074;-1.796;2023-03-12T03:33:19;100335.41;;;8.75;87.32
78411;BME280;67706;51.074;-1.796;2023-03-12T03:35:48;100336.44;;;8.74;87.10
78411;BME280;67706;51.074;-1.796;2023-03-12T03:38:15;100332.19;;;8.71;87.12
78411;BME280;67706;51.074;-1.796;2023-03-12T03:40:42;100336.44;;;8.74;86.10
78411;BME280;67706;51.074;-1.796;2023-03-12T03:43:09;100350.69;;;8.69;86.14
78411;BME280;67706;51.074;-1.796;2023-03-12T03:45:35;100351.69;;;8.62;86.37
78411;BME280;67706;51.074;-1.796;2023-03-12T03:48:02;100339.47;;;8.58;86.06
78411;BME280;67706;51.074;-1.796;2023-03-12T03:50:29;100340.81;;;8.68;85.06
78411;BME280;67706;51.074;-1.796;2023-03-12T03:52:57;100335.22;;;8.55;85.34
78411;BME280;67706;51.074;-1.796;2023-03-12T03:55:24;100337.31;;;8.53;84.43
78411;BME280;67706;51.074;-1.796;2023-03-12T03:57:51;100339.78;;;8.48;84.95
78411;BME280;67706;51.074;-1.796;2023-03-12T04:00:18;100335.03;;;8.36;85.08
78411;BME280;67706;51.074;-1.796;2023-03-12T04:02:45;100337.84;;;8.42;83.97
78411;BME280;67706;51.074;-1.796;2023-03-12T04:05:11;100348.97;;;8.41;84.10
78411;BME280;67706;51.074;-1.796;2023-03-12T04:07:40;100348.91;;;8.34;84.22
78411;BME280;67706;51.074;-1.796;2023-03-12T04:10:09;100358.09;;;8.27;84.25
78411;BME280;67706;51.074;-1.796;2023-03-12T04:12:36;100358.84;;;8.21;84.32
78411;BME280;67706;51.074;-1.796;2023-03-12T04:15:04;100373.72;;;8.18;84.12
78411;BME280;67706;51.074;-1.796;2023-03-12T04:17:31;100386.94;;;8.15;84.33
78411;BME280;67706;51.074;-1.796;2023-03-12T04:19:57;100399.09;;;8.12;84.47
78411;BME280;67706;51.074;-1.796;2023-03-12T04:22:24;100391.16;;;8.17;84.15
78411;BME280;67706;51.074;-1.796;2023-03-12T04:24:51;100397.38;;;8.11;84.16
78411;BME280;67706;51.074;-1.796;2023-03-12T04:27:19;100412.75;;;8.12;84.19
78411;BME280;67706;51.074;-1.796;2023-03-12T04:29:46;100415.94;;;8.16;84.28
78411;BME280;67706;51.074;-1.796;2023-03-12T04:32:12;100423.13;;;8.17;84.71
78411;BME280;67706;51.074;-1.796;2023-03-12T04:34:39;100427.94;;;8.15;84.42
78411;BME280;67706;51.074;-1.796;2023-03-12T04:37:06;100410.03;;;8.12;84.58
78411;BME280;67706;51.074;-1.796;2023-03-12T04:39:33;100406.44;;;8.12;84.08
78411;BME280;67706;51.074;-1.796;2023-03-12T04:41:59;100404.72;;;8.11;84.18
78411;BME280;67706;51.074;-1.796;2023-03-12T04:44:27;100418.13;;;8.06;84.31
78411;BME280;67706;51.074;-1.796;2023-03-12T04:46:54;100415.59;;;8.04;83.95
78411;BME280;67706;51.074;-1.796;2023-03-12T04:49:21;100409.09;;;8.05;84.19
78411;BME280;67706;51.074;-1.796;2023-03-12T04:51:47;100414.47;;;7.98;84.19
78411;BME280;67706;51.074;-1.796;2023-03-12T04:54:14;100407.44;;;7.89;84.31
78411;BME280;67706;51.074;-1.796;2023-03-12T04:56:41;100415.63;;;7.89;84.19
78411;BME280;67706;51.074;-1.796;2023-03-12T04:59:08;100403.88;;;7.74;84.39
78411;BME280;67706;51.074;-1.796;2023-03-12T05:01:36;100402.69;;;7.62;84.76
78411;BME280;67706;51.074;-1.796;2023-03-12T05:04:04;100422.81;;;7.61;84.59
78411;BME280;67706;51.074;-1.796;2023-03-12T05:06:31;100424.22;;;7.43;85.21
78411;BME280;67706;51.074;-1.796;2023-03-12T05:08:58;100419.13;;;7.54;84.66
78411;BME280;67706;51.074;-1.796;2023-03-12T05:11:24;100420.19;;;7.53;84.87
78411;BME280;67706;51.074;-1.796;2023-03-12T05:13:52;100412.25;;;7.58;84.41
78411;BME280;67706;51.074;-1.796;2023-03-12T05:16:19;100421.69;;;7.41;85.10
78411;BME280;67706;51.074;-1.796;2023-03-12T05:18:47;100406.06;;;7.35;84.95
78411;BME280;67706;51.074;-1.796;2023-03-12T05:21:16;100401.06;;;7.39;84.85
78411;BME280;67706;51.074;-1.796;2023-03-12T05:23:43;100409.47;;;7.37;84.90
78411;BME280;67706;51.074;-1.796;2023-03-12T05:26:15;100400.41;;;7.37;84.81
78411;BME280;67706;51.074;-1.796;2023-03-12T05:28:43;100396.72;;;7.30;85.27
78411;BME280;67706;51.074;-1.796;2023-03-12T05:31:10;100391.19;;;7.23;85.54
78411;BME280;67706;51.074;-1.796;2023-03-12T05:33:37;100396.28;;;7.26;85.43
78411;BME280;67706;51.074;-1.796;2023-03-12T05:36:08;100396.06;;;7.28;85.25
78411;BME280;67706;51.074;-1.796;2023-03-12T05:38:35;100408.69;;;7.29;85.35
78411;BME280;67706;51.074;-1.796;2023-03-12T05:41:02;100417.72;;;7.29;85.20
78411;BME280;67706;51.074;-1.796;2023-03-12T05:43:29;100418.66;;;7.36;84.86
78411;BME280;67706;51.074;-1.796;2023-03-12T05:45:58;100422.34;;;7.43;84.71
78411;BME280;67706;51.074;-1.796;2023-03-12T05:48:24;100414.91;;;7.52;84.22
78411;BME280;67706;51.074;-1.796;2023-03-12T05:50:51;100433.53;;;7.63;83.83
78411;BME280;67706;51.074;-1.796;2023-03-12T05:53:19;100442.28;;;7.58;84.11
78411;BME280;67706;51.074;-1.796;2023-03-12T05:55:46;100440.13;;;7.68;83.44
78411;BME280;67706;51.074;-1.796;2023-03-12T05:58:13;100443.13;;;7.59;83.77
78411;BME280;67706;51.074;-1.796;2023-03-12T06:00:40;100445.19;;;7.57;84.01
78411;BME280;67706;51.074;-1.796;2023-03-12T06:03:08;100448.59;;;7.59;83.82
78411;BME280;67706;51.074;-1.796;2023-03-12T06:05:35;100463.84;;;7.53;84.26
78411;BME280;67706;51.074;-1.796;2023-03-12T06:08:03;100458.00;;;7.56;84.02
78411;BME280;67706;51.074;-1.796;2023-03-12T06:10:31;100455.19;;;7.50;84.37
78411;BME280;67706;51.074;-1.796;2023-03-12T06:12:58;100460.34;;;7.45;84.69
78411;BME280;67706;51.074;-1.796;2023-03-12T06:15:25;100475.59;;;7.39;84.76
78411;BME280;67706;51.074;-1.796;2023-03-12T06:17:51;100487.94;;;7.35;84.75
78411;BME280;67706;51.074;-1.796;2023-03-12T06:20:18;100476.31;;;7.33;85.07
78411;BME280;67706;51.074;-1.796;2023-03-12T06:22:45;100477.91;;;7.28;85.31
78411;BME280;67706;51.074;-1.796;2023-03-12T06:25:11;100482.34;;;7.14;86.41
78411;BME280;67706;51.074;-1.796;2023-03-12T06:27:40;100453.03;;;7.08;86.36
78411;BME280;67706;51.074;-1.796;2023-03-12T06:30:08;100452.75;;;7.03;86.05
78411;BME280;67706;51.074;-1.796;2023-03-12T06:32:35;100444.00;;;6.93;86.11
78411;BME280;67706;51.074;-1.796;2023-03-12T06:35:02;100453.28;;;6.84;86.38
78411;BME280;67706;51.074;-1.796;2023-03-12T06:37:30;100454.75;;;6.72;86.94
78411;BME280;67706;51.074;-1.796;2023-03-12T06:39:56;100466.66;;;6.71;86.17
78411;BME280;67706;51.074;-1.796;2023-03-12T06:42:23;100466.38;;;6.66;86.52
78411;BME280;67706;51.074;-1.796;2023-03-12T06:44:52;100467.78;;;6.62;86.69
78411;BME280;67706;51.074;-1.796;2023-03-12T06:47:19;100467.53;;;6.71;86.41
78411;BME280;67706;51.074;-1.796;2023-03-12T06:49:46;100459.81;;;6.75;86.38
78411;BME280;67706;51.074;-1.796;2023-03-12T06:52:12;100457.72;;;6.85;85.76
78411;BME280;67706;51.074;-1.796;2023-03-12T06:54:39;100444.84;;;6.71;86.04
78411;BME280;67706;51.074;-1.796;2023-03-12T06:57:06;100447.31;;;6.66;86.28
78411;BME280;67706;51.074;-1.796;2023-03-12T06:59:33;100440.13;;;6.65;86.87
78411;BME280;67706;51.074;-1.796;2023-03-12T07:02:01;100442.00;;;6.64;86.97
78411;BME280;67706;51.074;-1.796;2023-03-12T07:04:28;100436.41;;;6.66;86.56
78411;BME280;67706;51.074;-1.796;2023-03-12T07:06:54;100436.13;;;6.75;86.60
78411;BME280;67706;51.074;-1.796;2023-03-12T07:09:21;100440.38;;;6.78;86.43
78411;BME280;67706;51.074;-1.796;2023-03-12T07:11:48;100452.19;;;6.93;86.11
78411;BME280;67706;51.074;-1.796;2023-03-12T07:14:15;100447.94;;;6.90;86.21
78411;BME280;67706;51.074;-1.796;2023-03-12T07:16:41;100448.91;;;6.97;85.83
78411;BME280;67706;51.074;-1.796;2023-03-12T07:19:09;100450.41;;;7.00;86.11
78411;BME280;67706;51.074;-1.796;2023-03-12T07:21:36;100445.44;;;7.03;85.64
78411;BME280;67706;51.074;-1.796;2023-03-12T07:24:03;100457.84;;;7.06;85.43
78411;BME280;67706;51.074;-1.796;2023-03-12T07:26:32;100448.63;;;7.07;85.08
78411;BME280;67706;51.074;-1.796;2023-03-12T07:29:00;100466.31;;;7.11;85.00
78411;BME280;67706;51.074;-1.796;2023-03-12T07:31:27;100467.72;;;7.07;84.71
78411;BME280;67706;51.074;-1.796;2023-03-12T07:33:54;100469.69;;;6.98;84.94
78411;BME280;67706;51.074;-1.796;2023-03-12T07:36:22;100476.56;;;7.09;84.68
78411;BME280;67706;51.074;-1.796;2023-03-12T07:38:48;100480.31;;;7.08;84.56
78411;BME280;67706;51.074;-1.796;2023-03-12T07:41:15;100481.66;;;7.12;84.74
78411;BME280;67706;51.074;-1.796;2023-03-12T07:43:42;100486.06;;;7.13;84.45
78411;BME280;67706;51.074;-1.796;2023-03-12T07:46:08;100488.25;;;7.17;84.64
78411;BME280;67706;51.074;-1.796;2023-03-12T07:48:35;100489.28;;;7.16;84.63
78411;BME280;67706;51.074;-1.796;2023-03-12T07:51:03;100492.41;;;7.28;84.69
78411;BME280;67706;51.074;-1.796;2023-03-12T07:53:31;100479.44;;;7.30;84.24
78411;BME280;67706;51.074;-1.796;2023-03-12T07:55:58;100492.25;;;7.44;83.42
78411;BME280;67706;51.074;-1.796;2023-03-12T07:58:24;100491.31;;;7.37;84.13
78411;BME280;67706;51.074;-1.796;2023-03-12T08:00:53;100494.31;;;7.42;84.11
78411;BME280;67706;51.074;-1.796;2023-03-12T08:03:20;100501.22;;;7.53;83.60
78411;BME280;67706;51.074;-1.796;2023-03-12T08:05:55;100502.31;;;7.58;84.08
78411;BME280;67706;51.074;-1.796;2023-03-12T08:08:22;100505.81;;;7.52;84.77
78411;BME280;67706;51.074;-1.796;2023-03-12T08:10:50;100515.81;;;7.60;84.12
78411;BME280;67706;51.074;-1.796;2023-03-12T08:13:17;100521.53;;;7.65;84.23
78411;BME280;67706;51.074;-1.796;2023-03-12T08:15:43;100521.66;;;7.71;84.14
78411;BME280;67706;51.074;-1.796;2023-03-12T08:18:10;100520.06;;;7.77;83.29
78411;BME280;67706;51.074;-1.796;2023-03-12T08:20:37;100527.88;;;7.94;83.21
78411;BME280;67706;51.074;-1.796;2023-03-12T08:23:04;100537.94;;;7.94;83.34
78411;BME280;67706;51.074;-1.796;2023-03-12T08:25:30;100546.97;;;8.09;82.82
78411;BME280;67706;51.074;-1.796;2023-03-12T08:27:58;100552.75;;;8.14;82.81
78411;BME280;67706;51.074;-1.796;2023-03-12T08:30:25;100543.31;;;8.17;83.06
78411;BME280;67706;51.074;-1.796;2023-03-12T08:32:52;100555.16;;;8.24;82.66
78411;BME280;67706;51.074;-1.796;2023-03-12T08:35:18;100545.59;;;8.28;82.96
78411;BME280;67706;51.074;-1.796;2023-03-12T08:37:45;100550.50;;;8.32;82.43
78411;BME280;67706;51.074;-1.796;2023-03-12T08:40:12;100550.47;;;8.47;82.63
78411;BME280;67706;51.074;-1.796;2023-03-12T08:42:39;100546.06;;;8.46;82.44
78411;BME280;67706;51.074;-1.796;2023-03-12T08:45:09;100538.69;;;8.46;82.79
78411;BME280;67706;51.074;-1.796;2023-03-12T08:47:36;100546.50;;;8.49;82.46
78411;BME280;67706;51.074;-1.796;2023-03-12T08:50:07;100545.09;;;8.53;82.36
78411;BME280;67706;51.074;-1.796;2023-03-12T08:52:33;100545.53;;;8.57;82.56
78411;BME280;67706;51.074;-1.796;2023-03-12T08:55:00;100535.16;;;8.67;82.34
78411;BME280;67706;51.074;-1.796;2023-03-12T08:57:27;100534.84;;;8.76;81.91
78411;BME280;67706;51.074;-1.796;2023-03-12T08:59:54;100525.53;;;8.71;81.63
78411;BME280;67706;51.074;-1.796;2023-03-12T09:02:22;100520.06;;;8.71;82.00
78411;BME280;67706;51.074;-1.796;2023-03-12T09:04:49;100516.13;;;8.80;82.12
78411;BME280;67706;51.074;-1.796;2023-03-12T09:07:16;100516.88;;;8.89;81.71
78411;BME280;67706;51.074;-1.796;2023-03-12T09:09:42;100518.66;;;8.96;81.77
78411;BME280;67706;51.074;-1.796;2023-03-12T09:12:09;100514.34;;;9.08;81.72
78411;BME280;67706;51.074;-1.796;2023-03-12T09:14:36;100508.13;;;9.21;81.59
78411;BME280;67706;51.074;-1.796;2023-03-12T09:17:03;100513.13;;;9.38;81.19
78411;BME280;67706;51.074;-1.796;2023-03-12T09:19:31;100514.09;;;9.52;80.87
78411;BME280;67706;51.074;-1.796;2023-03-12T09:21:58;100508.28;;;9.68;80.53
78411;BME280;67706;51.074;-1.796;2023-03-12T09:24:27;100504.84;;;9.87;80.24
78411;BME280;67706;51.074;-1.796;2023-03-12T09:26:54;100492.06;;;10.01;79.09
78411;BME280;67706;51.074;-1.796;2023-03-12T09:29:21;100495.53;;;10.16;79.35
78411;BME280;67706;51.074;-1.796;2023-03-12T09:31:49;100488.41;;;10.21;79.41
78411;BME280;67706;51.074;-1.796;2023-03-12T09:34:15;100485.53;;;10.36;79.24
78411;BME280;67706;51.074;-1.796;2023-03-12T09:36:43;100489.97;;;10.44;78.06
78411;BME280;67706;51.074;-1.796;2023-03-12T09:39:10;100468.66;;;10.46;77.82
78411;BME280;67706;51.074;-1.796;2023-03-12T09:41:38;100461.75;;;10.56;77.88
78411;BME280;67706;51.074;-1.796;2023-03-12T09:44:12;100460.88;;;10.56;77.77
78411;BME280;67706;51.074;-1.796;2023-03-12T09:46:45;100451.00;;;10.61;77.10
78411;BME280;67706;51.074;-1.796;2023-03-12T09:49:18;100453.13;;;10.66;76.97
78411;BME280;67706;51.074;-1.796;2023-03-12T09:51:52;100455.25;;;10.70;76.81
78411;BME280;67706;51.074;-1.796;2023-03-12T09:54:23;100448.91;;;10.70;76.75
78411;BME280;67706;51.074;-1.796;2023-03-12T09:56:54;100447.66;;;10.72;75.90
78411;BME280;67706;51.074;-1.796;2023-03-12T09:59:25;100447.22;;;10.75;75.98
78411;BME280;67706;51.074;-1.796;2023-03-12T10:01:56;100454.41;;;10.76;75.80
78411;BME280;67706;51.074;-1.796;2023-03-12T10:04:39;100443.84;;;10.80;76.32
78411;BME280;67706;51.074;-1.796;2023-03-12T10:07:13;100453.16;;;10.85;76.06
78411;BME280;67706;51.074;-1.796;2023-03-12T10:10:06;100455.25;;;10.90;75.08
78411;BME280;67706;51.074;-1.796;2023-03-12T10:12:42;100450.63;;;10.90;75.80
78411;BME280;67706;51.074;-1.796;2023-03-12T10:15:26;100454.88;;;10.93;74.85
78411;BME280;67706;51.074;-1.796;2023-03-12T10:18:07;100456.53;;;11.00;75.10
78411;BME280;67706;51.074;-1.796;2023-03-12T10:20:48;100449.38;;;11.19;74.43
78411;BME280;67706;51.074;-1.796;2023-03-12T10:23:23;100454.88;;;11.26;73.17
78411;BME280;67706;51.074;-1.796;2023-03-12T10:25:59;100443.66;;;11.34;73.17
78411;BME280;67706;51.074;-1.796;2023-03-12T10:28:33;100441.75;;;11.41;72.63
78411;BME280;67706;51.074;-1.796;2023-03-12T10:31:06;100434.16;;;11.43;72.71
78411;BME280;67706;51.074;-1.796;2023-03-12T10:33:39;100431.19;;;11.38;72.58
78411;BME280;67706;51.074;-1.796;2023-03-12T10:36:15;100428.66;;;11.43;72.75
78411;BME280;67706;51.074;-1.796;2023-03-12T10:38:44;100434.16;;;11.43;71.04
78411;BME280;67706;51.074;-1.796;2023-03-12T10:41:14;100419.78;;;11.54;72.44
78411;BME280;67706;51.074;-1.796;2023-03-12T10:43:41;100427.34;;;11.65;71.17
78411;BME280;67706;51.074;-1.796;2023-03-12T10:46:37;100424.84;;;11.70;69.49
78411;BME280;67706;51.074;-1.796;2023-03-12T10:49:24;100417.56;;;11.95;70.86
78411;BME280;67706;51.074;-1.796;2023-03-12T10:51:55;100420.09;;;11.96;70.16
78411;BME280;67706;51.074;-1.796;2023-03-12T10:54:27;100417.94;;;12.05;72.57
78411;BME280;67706;51.074;-1.796;2023-03-12T10:56:54;100422.19;;;12.01;70.32
78411;BME280;67706;51.074;-1.796;2023-03-12T10:59:26;100418.34;;;12.09;70.29
78411;BME280;67706;51.074;-1.796;2023-03-12T11:01:53;100412.22;;;12.07;72.49
78411;BME280;67706;51.074;-1.796;2023-03-12T11:04:23;100409.47;;;12.07;69.59
78411;BME280;67706;51.074;-1.796;2023-03-12T11:07:03;100410.03;;;12.22;69.68
78411;BME280;67706;51.074;-1.796;2023-03-12T11:09:32;100405.50;;;12.40;71.01
78411;BME280;67706;51.074;-1.796;2023-03-12T11:11:58;100407.50;;;12.64;71.27
78411;BME280;67706;51.074;-1.796;2023-03-12T11:14:27;100412.63;;;12.54;70.39
78411;BME280;67706;51.074;-1.796;2023-03-12T11:16:55;100396.97;;;12.48;71.18
78411;BME280;67706;51.074;-1.796;2023-03-12T11:19:26;100395.59;;;12.39;70.79
78411;BME280;67706;51.074;-1.796;2023-03-12T11:21:56;100407.44;;;12.40;70.49
78411;BME280;67706;51.074;-1.796;2023-03-12T11:24:23;100410.03;;;12.22;70.75
78411;BME280;67706;51.074;-1.796;2023-03-12T11:26:53;100406.38;;;12.34;70.67
78411;BME280;67706;51.074;-1.796;2023-03-12T11:29:24;100410.25;;;12.27;70.75
78411;BME280;67706;51.074;-1.796;2023-03-12T11:31:58;100403.41;;;12.36;70.66
78411;BME280;67706;51.074;-1.796;2023-03-12T11:34:28;100409.97;;;12.41;70.20
78411;BME280;67706;51.074;-1.796;2023-03-12T11:37:03;100396.84;;;12.37;69.58
78411;BME280;67706;51.074;-1.796;2023-03-12T11:39:41;100394.06;;;12.43;69.43
78411;BME280;67706;51.074;-1.796;2023-03-12T11:42:24;100394.09;;;12.37;69.11
78411;BME280;67706;51.074;-1.796;2023-03-12T11:45:01;100388.84;;;12.35;68.46
78411;BME280;67706;51.074;-1.796;2023-03-12T11:47:48;100402.84;;;12.27;68.52
78411;BME280;67706;51.074;-1.796;2023-03-12T11:50:25;100397.78;;;12.24;69.71
78411;BME280;67706;51.074;-1.796;2023-03-12T11:53:11;100397.16;;;12.22;69.85
78411;BME280;67706;51.074;-1.796;2023-03-12T11:55:50;100389.53;;;12.24;70.18
78411;BME280;67706;51.074;-1.796;2023-03-12T11:58:35;100381.66;;;12.28;69.34
78411;BME280;67706;51.074;-1.796;2023-03-12T12:01:10;100375.16;;;12.22;70.21
78411;BME280;67706;51.074;-1.796;2023-03-12T12:03:59;100378.25;;;12.32;69.35
78411;BME280;67706;51.074;-1.796;2023-03-12T12:06:38;100375.88;;;12.42;69.41
78411;BME280;67706;51.074;-1.796;2023-03-12T12:09:15;100370.81;;;12.39;69.25
78411;BME280;67706;51.074;-1.796;2023-03-12T12:12:10;100372.47;;;12.47;69.73
78411;BME280;67706;51.074;-1.796;2023-03-12T12:14:49;100366.28;;;12.51;68.72
78411;BME280;67706;51.074;-1.796;2023-03-12T12:17:27;100375.03;;;12.42;68.60
78411;BME280;67706;51.074;-1.796;2023-03-12T12:20:07;100378.31;;;12.19;68.40
78411;BME280;67706;51.074;-1.796;2023-03-12T12:22:46;100381.53;;;12.16;69.35
78411;BME280;67706;51.074;-1.796;2023-03-12T12:25:26;100380.66;;;12.22;69.15
78411;BME280;67706;51.074;-1.796;2023-03-12T12:28:04;100378.94;;;12.21;68.95
78411;BME280;67706;51.074;-1.796;2023-03-12T12:30:48;100375.09;;;12.35;68.64
78411;BME280;67706;51.074;-1.796;2023-03-12T12:33:28;100366.66;;;12.24;68.43
78411;BME280;67706;51.074;-1.796;2023-03-12T12:35:57;100359.22;;;11.93;69.71
78411;BME280;67706;51.074;-1.796;2023-03-12T12:38:29;100365.69;;;12.12;70.63
78411;BME280;67706;51.074;-1.796;2023-03-12T12:41:01;100353.22;;;12.09;70.63
78411;BME280;67706;51.074;-1.796;2023-03-12T12:43:33;100352.34;;;12.15;70.43
78411;BME280;67706;51.074;-1.796;2023-03-12T12:46:07;100348.47;;;12.29;69.86
78411;BME280;67706;51.074;-1.796;2023-03-12T12:48:35;100347.63;;;12.29;69.71
78411;BME280;67706;51.074;-1.796;2023-03-12T12:51:05;100348.06;;;12.19;69.38
78411;BME280;67706;51.074;-1.796;2023-03-12T12:53:38;100343.81;;;12.23;70.29
78411;BME280;67706;51.074;-1.796;2023-03-12T12:56:12;100348.16;;;12.44;70.02
78411;BME280;67706;51.074;-1.796;2023-03-12T12:58:52;100340.78;;;12.69;68.75